createdAt,value
2018-11-02T00:00:37.483Z,98953.67
2018-11-02T00:03:07.058Z,98949.26
2018-11-02T00:05:36.132Z,98945.31
2018-11-02T00:08:06.663Z,98951.25
2018-11-02T00:10:35.784Z,98955.22
2018-11-02T00:13:04.880Z,98951.05
2018-11-02T00:15:33.885Z,98953.21
2018-11-02T00:18:03.042Z,98948.25
2018-11-02T00:20:32.716Z,98959.64
2018-11-02T00:23:01.691Z,98985.92
2018-11-02T00:25:30.980Z,98997.60
2018-11-02T00:28:00.757Z,99012.26
2018-11-02T00:30:30.461Z,99013.49
2018-11-02T00:33:00.000Z,99015.11
2018-11-02T00:35:29.564Z,99023.22
2018-11-02T00:37:59.656Z,99028.64
2018-11-02T00:40:28.719Z,99018.57
2018-11-02T00:42:58.532Z,99026.01
2018-11-02T00:45:27.643Z,99012.54
2018-11-02T00:47:56.546Z,99004.55
2018-11-02T00:50:25.704Z,99010.89
2018-11-02T00:52:54.313Z,99016.32
2018-11-02T00:55:23.272Z,99023.20
2018-11-02T00:57:52.386Z,99021.59
2018-11-02T01:00:21.782Z,99026.16
2018-11-02T01:02:51.452Z,99026.65
2018-11-02T01:05:20.229Z,99032.00
2018-11-02T01:07:49.901Z,99032.54
2018-11-02T01:10:19.037Z,99035.67
2018-11-02T01:12:48.071Z,99041.59
2018-11-02T01:15:17.676Z,99048.47
2018-11-02T01:17:46.493Z,99050.52
2018-11-02T01:20:15.933Z,99047.41
2018-11-02T01:22:44.898Z,99047.70
2018-11-02T01:25:13.483Z,99041.20
2018-11-02T01:27:43.051Z,99038.30
2018-11-02T01:30:12.717Z,99035.44
2018-11-02T01:32:42.127Z,99040.06
2018-11-02T01:35:11.087Z,99044.73
2018-11-02T01:37:40.624Z,99040.66
2018-11-02T01:40:09.845Z,99051.25
2018-11-02T01:42:38.574Z,99047.54
2018-11-02T01:45:08.084Z,99061.06
2018-11-02T01:47:36.978Z,99057.78
2018-11-02T01:50:06.625Z,99066.04
2018-11-02T01:52:36.331Z,99060.39
2018-11-02T01:55:06.584Z,99070.00
2018-11-02T01:57:35.764Z,99070.34
2018-11-02T02:00:05.061Z,99068.08
2018-11-02T02:02:34.113Z,99067.32
2018-11-02T02:05:03.556Z,99072.69
2018-11-02T02:07:33.297Z,99068.82
2018-11-02T02:10:02.616Z,99064.58
2018-11-02T02:12:31.655Z,99067.45
2018-11-02T02:15:00.490Z,99062.94
2018-11-02T02:17:30.109Z,99067.07
2018-11-02T02:19:58.744Z,99076.73
2018-11-02T02:22:27.317Z,99077.77
2018-11-02T02:24:56.296Z,99073.73
2018-11-02T02:27:25.393Z,99075.88
2018-11-02T02:29:54.642Z,99071.84
2018-11-02T02:32:24.024Z,99066.27
2018-11-02T02:34:53.161Z,99067.59
2018-11-02T02:37:21.761Z,99073.30
2018-11-02T02:39:52.192Z,99072.42
2018-11-02T02:42:21.832Z,99076.27
2018-11-02T02:44:51.178Z,99071.04
2018-11-02T02:47:20.365Z,99061.72
2018-11-02T02:49:49.761Z,99064.27
2018-11-02T02:52:18.394Z,99071.91
2018-11-02T02:54:48.364Z,99072.75
2018-11-02T02:57:17.976Z,99072.59
2018-11-02T02:59:47.442Z,99074.89
2018-11-02T03:02:16.286Z,99073.34
2018-11-02T03:04:45.864Z,99070.05
2018-11-02T03:07:15.138Z,99075.42
2018-11-02T03:09:44.518Z,99081.22
2018-11-02T03:12:14.155Z,99082.95
2018-11-02T03:14:43.406Z,99080.64
2018-11-02T03:17:12.628Z,99085.53
2018-11-02T03:19:42.293Z,99086.41
2018-11-02T03:22:10.894Z,99091.40
2018-11-02T03:24:39.862Z,99095.53
2018-11-02T03:27:09.023Z,99094.48
2018-11-02T03:29:37.625Z,99100.13
2018-11-02T03:32:06.226Z,99102.84
2018-11-02T03:34:35.711Z,99108.03
2018-11-02T03:37:04.765Z,99102.60
2018-11-02T03:39:33.847Z,99116.50
2018-11-02T03:42:02.802Z,99120.67
2018-11-02T03:44:32.649Z,99132.61
2018-11-02T03:47:01.874Z,99132.91
2018-11-02T03:49:31.471Z,99143.16
2018-11-02T03:52:01.711Z,99146.64
2018-11-02T03:54:30.861Z,99149.19
2018-11-02T03:57:00.024Z,99166.64
2018-11-02T03:59:29.306Z,99174.68
2018-11-02T04:01:58.105Z,99177.70
2018-11-02T04:04:29.395Z,99182.52
2018-11-02T04:06:59.370Z,99192.72
2018-11-02T04:09:29.297Z,99202.39
2018-11-02T04:11:58.131Z,99201.80
2018-11-02T04:14:28.010Z,99195.67
2018-11-02T04:16:57.460Z,99201.94
2018-11-02T04:19:26.731Z,99205.95
2018-11-02T04:21:56.067Z,99209.44
2018-11-02T04:24:25.417Z,99217.52
2018-11-02T04:26:54.912Z,99219.50
2018-11-02T04:29:24.575Z,99224.55
2018-11-02T04:31:53.627Z,99224.48
2018-11-02T04:34:23.164Z,99232.69
2018-11-02T04:36:52.106Z,99230.89
2018-11-02T04:39:22.463Z,99231.44
2018-11-02T04:41:51.594Z,99235.41
2018-11-02T04:44:21.182Z,99232.22
2018-11-02T04:46:50.165Z,99235.31
2018-11-02T04:49:19.205Z,99242.75
2018-11-02T04:51:48.572Z,99248.22
2018-11-02T04:54:18.263Z,99246.36
2018-11-02T04:56:48.083Z,99253.33
2018-11-02T04:59:17.942Z,99258.08
2018-11-02T05:01:46.856Z,99262.95
2018-11-02T05:04:16.264Z,99263.69
2018-11-02T05:06:45.552Z,99267.66
2018-11-02T05:09:14.505Z,99271.86
2018-11-02T05:11:43.421Z,99274.81
2018-11-02T05:14:12.081Z,99274.86
2018-11-02T05:16:41.716Z,99282.55
2018-11-02T05:19:10.309Z,99290.38
2018-11-02T05:21:39.620Z,99298.28
2018-11-02T05:24:08.667Z,99293.48
2018-11-02T05:26:37.608Z,99300.14
2018-11-02T05:29:06.386Z,99307.37
2018-11-02T05:31:35.562Z,99314.23
2018-11-02T05:34:05.284Z,99318.09
2018-11-02T05:36:34.905Z,99331.41
2018-11-02T05:39:04.689Z,99325.45
2018-11-02T05:41:33.228Z,99329.91
2018-11-02T05:44:02.496Z,99330.11
2018-11-02T05:46:32.116Z,99338.78
2018-11-02T05:49:01.213Z,99351.72
2018-11-02T05:51:31.751Z,99358.30
2018-11-02T05:54:00.657Z,99366.38
2018-11-02T05:56:29.399Z,99369.14
2018-11-02T05:58:58.313Z,99367.20
2018-11-02T06:01:27.191Z,99370.61
2018-11-02T06:03:56.608Z,99372.44
2018-11-02T06:06:26.763Z,99371.78
2018-11-02T06:08:56.299Z,99380.77
2018-11-02T06:11:25.907Z,99374.26
2018-11-02T06:13:54.894Z,99376.50
2018-11-02T06:16:24.009Z,99370.23
2018-11-02T06:18:53.355Z,99371.94
2018-11-02T06:21:22.337Z,99379.38
2018-11-02T06:23:51.793Z,99378.05
2018-11-02T06:26:20.931Z,99380.45
2018-11-02T06:28:50.287Z,99380.27
2018-11-02T06:31:19.538Z,99382.58
2018-11-02T06:33:49.127Z,99379.09
2018-11-02T06:36:17.990Z,99385.06
2018-11-02T06:38:47.599Z,99384.60
2018-11-02T06:41:16.475Z,99390.64
2018-11-02T06:43:45.500Z,99403.50
2018-11-02T06:46:15.018Z,99409.38
2018-11-02T06:48:45.536Z,99416.13
2018-11-02T06:51:14.830Z,99417.60
2018-11-02T06:53:44.365Z,99420.88
2018-11-02T06:56:13.480Z,99432.52
2018-11-02T06:58:43.323Z,99429.68
2018-11-02T07:01:12.953Z,99423.95
2018-11-02T07:03:41.585Z,99429.72
2018-11-02T07:06:10.638Z,99441.80
2018-11-02T07:08:40.000Z,99443.31
2018-11-02T07:11:09.950Z,99445.06
2018-11-02T07:13:39.452Z,99447.47
2018-11-02T07:16:09.404Z,99448.80
2018-11-02T07:18:38.193Z,99450.26
2018-11-02T07:21:07.689Z,99453.28
2018-11-02T07:23:36.337Z,99460.67
2018-11-02T07:26:05.197Z,99457.57
2018-11-02T07:28:34.549Z,99464.38
2018-11-02T07:31:04.243Z,99474.17
2018-11-02T07:33:33.906Z,99487.41
2018-11-02T07:36:02.845Z,99492.88
2018-11-02T07:38:32.531Z,99491.56
2018-11-02T07:41:02.137Z,99490.98
2018-11-02T07:43:31.570Z,99495.92
2018-11-02T07:46:00.992Z,99496.84
2018-11-02T07:48:29.815Z,99508.34
2018-11-02T07:51:00.352Z,99509.87
2018-11-02T07:53:34.311Z,99510.97
2018-11-02T07:56:08.105Z,99517.91
2018-11-02T07:58:40.213Z,99529.06
2018-11-02T08:01:11.961Z,99537.43
2018-11-02T08:03:45.118Z,99537.30
2018-11-02T08:06:21.548Z,99557.23
2018-11-02T08:08:53.039Z,99552.41
2018-11-02T08:11:36.236Z,99555.70
2018-11-02T08:16:49.355Z,99560.48
2018-11-02T08:19:18.949Z,99563.27
2018-11-02T08:21:49.015Z,99559.44
2018-11-02T08:24:21.696Z,99563.05
2018-11-02T08:26:55.161Z,99575.78
2018-11-02T08:29:25.084Z,99580.05
2018-11-02T08:32:31.866Z,99578.03
2018-11-02T08:35:10.976Z,99583.06
2018-11-02T08:41:03.193Z,99588.34
2018-11-02T08:43:46.612Z,99588.77
2018-11-02T08:46:21.497Z,99584.08
2018-11-02T08:48:58.604Z,99581.23
2018-11-02T08:51:32.365Z,99581.73
2018-11-02T08:54:07.605Z,99586.39
2018-11-02T08:56:38.234Z,99587.63
2018-11-02T08:59:18.319Z,99594.14
2018-11-02T09:01:52.407Z,99591.84
2018-11-02T09:04:24.753Z,99601.77
2018-11-02T09:06:56.936Z,99607.52
2018-11-02T09:09:29.768Z,99611.78
2018-11-02T09:12:04.265Z,99613.39
2018-11-02T09:14:39.513Z,99610.86
2018-11-02T09:17:08.712Z,99614.75
2018-11-02T09:19:37.796Z,99624.20
2018-11-02T09:22:08.586Z,99623.69
2018-11-02T09:24:41.314Z,99632.39
2018-11-02T09:27:16.317Z,99637.38
2018-11-02T09:29:47.510Z,99637.13
2018-11-02T09:32:17.817Z,99632.22
2018-11-02T09:34:55.541Z,99643.98
2018-11-02T09:37:24.566Z,99645.13
2018-11-02T09:40:01.866Z,99642.96
2018-11-02T09:42:32.641Z,99644.75
2018-11-02T09:45:05.277Z,99646.94
2018-11-02T09:47:35.838Z,99647.11
2018-11-02T09:50:05.317Z,99643.89
2018-11-02T09:52:41.843Z,99648.84
2018-11-02T09:55:15.856Z,99660.44
2018-11-02T09:57:53.543Z,99655.12
2018-11-02T10:00:23.487Z,99653.89
2018-11-02T10:02:52.967Z,99659.38
2018-11-02T10:05:21.980Z,99657.20
2018-11-02T10:07:51.379Z,99657.67
2018-11-02T10:10:20.743Z,99661.49
2018-11-02T10:12:49.686Z,99660.70
2018-11-02T10:15:20.917Z,99664.67
2018-11-02T10:17:57.540Z,99661.27
2018-11-02T10:20:27.051Z,99663.91
2018-11-02T10:22:58.309Z,99655.52
2018-11-02T10:25:28.742Z,99659.56
2018-11-02T10:28:28.514Z,99655.88
2018-11-02T10:31:33.944Z,99656.64
2018-11-02T10:34:14.707Z,99658.59
2018-11-02T10:36:56.748Z,99667.41
2018-11-02T10:39:41.455Z,99666.26
2018-11-02T10:42:20.548Z,99675.33
2018-11-02T10:45:02.877Z,99669.54
2018-11-02T10:47:33.424Z,99668.75
2018-11-02T10:50:02.707Z,99668.13
2018-11-02T10:52:32.209Z,99666.42
2018-11-02T10:55:01.388Z,99670.64
2018-11-02T10:57:31.417Z,99676.80
2018-11-02T11:00:01.938Z,99680.11
2018-11-02T11:02:36.134Z,99679.14
2018-11-02T11:05:06.338Z,99679.17
2018-11-02T11:07:35.817Z,99681.53
2018-11-02T11:10:07.630Z,99684.09
2018-11-02T11:12:36.734Z,99678.88
2018-11-02T11:15:05.905Z,99675.34
2018-11-02T11:17:35.186Z,99671.86
2018-11-02T11:20:04.073Z,99667.68
2018-11-02T11:22:33.507Z,99667.88
2018-11-02T11:25:03.181Z,99674.66
2018-11-02T11:27:31.835Z,99673.73
2018-11-02T11:30:01.157Z,99681.03
2018-11-02T11:32:30.127Z,99671.44
2018-11-02T11:34:59.715Z,99665.03
2018-11-02T11:37:28.485Z,99671.84
2018-11-02T11:39:57.529Z,99673.53
2018-11-02T11:42:26.594Z,99670.58
2018-11-02T11:44:55.194Z,99674.28
2018-11-02T11:47:24.096Z,99673.23
2018-11-02T11:49:53.138Z,99671.27
2018-11-02T11:52:22.616Z,99678.98
2018-11-02T11:54:52.956Z,99673.23
2018-11-02T11:57:22.066Z,99675.34
2018-11-02T11:59:51.625Z,99670.02
2018-11-02T12:02:20.689Z,99677.52
2018-11-02T12:04:49.951Z,99665.20
2018-11-02T12:07:20.086Z,99674.28
2018-11-02T12:09:48.988Z,99677.89
2018-11-02T12:12:19.067Z,99670.88
2018-11-02T12:14:48.838Z,99671.25
2018-11-02T12:17:18.249Z,99674.47
2018-11-02T12:19:47.768Z,99675.52
2018-11-02T12:22:16.998Z,99668.69
2018-11-02T12:24:46.457Z,99670.86
2018-11-02T12:27:15.399Z,99681.97
2018-11-02T12:29:44.409Z,99685.75
2018-11-02T12:32:13.517Z,99687.86
2018-11-02T12:34:42.749Z,99685.00
2018-11-02T12:37:11.993Z,99695.05
2018-11-02T12:39:41.113Z,99696.84
2018-11-02T12:42:10.206Z,99701.11
2018-11-02T12:44:39.632Z,99697.98
2018-11-02T12:47:08.824Z,99694.20
2018-11-02T12:49:37.823Z,99684.54
2018-11-02T12:52:06.624Z,99696.59
2018-11-02T12:54:36.506Z,99702.17
2018-11-02T12:57:05.741Z,99705.09
2018-11-02T12:59:34.897Z,99700.93
2018-11-02T13:02:03.501Z,99707.17
2018-11-02T13:04:33.342Z,99712.41
2018-11-02T13:07:02.708Z,99708.59
2018-11-02T13:09:31.731Z,99714.86
2018-11-02T13:12:00.653Z,99718.68
2018-11-02T13:14:29.649Z,99713.47
2018-11-02T13:16:58.593Z,99713.27
2018-11-02T13:19:27.582Z,99714.59
2018-11-02T13:21:56.629Z,99718.20
2018-11-02T13:24:25.570Z,99721.41
2018-11-02T13:26:54.706Z,99722.47
2018-11-02T13:29:23.407Z,99723.31
2018-11-02T13:31:52.636Z,99727.10
2018-11-02T13:34:21.773Z,99736.39
2018-11-02T13:36:50.919Z,99740.20
2018-11-02T13:39:20.075Z,99738.69
2018-11-02T13:41:48.877Z,99744.67
2018-11-02T13:44:18.541Z,99743.70
2018-11-02T13:46:47.325Z,99742.02
2018-11-02T13:49:16.176Z,99745.61
2018-11-02T13:51:44.988Z,99743.91
2018-11-02T13:54:14.573Z,99745.90
2018-11-02T13:56:43.375Z,99753.02
2018-11-02T13:59:12.404Z,99762.90
2018-11-02T14:01:41.959Z,99758.88
2018-11-02T14:04:10.971Z,99771.59
2018-11-02T14:06:39.848Z,99769.52
2018-11-02T14:09:09.652Z,99772.92
2018-11-02T14:11:38.983Z,99773.98
2018-11-02T14:14:08.523Z,99777.08
2018-11-02T14:16:38.480Z,99781.55
2018-11-02T14:19:07.972Z,99789.05
2018-11-02T14:21:36.925Z,99798.45
2018-11-02T14:24:06.593Z,99793.44
2018-11-02T14:26:35.836Z,99791.06
2018-11-02T14:29:05.813Z,99778.24
2018-11-02T14:31:35.023Z,99780.34
2018-11-02T14:34:04.365Z,99785.09
2018-11-02T14:36:33.152Z,99782.81
2018-11-02T14:39:02.448Z,99792.69
2018-11-02T14:41:31.728Z,99797.72
2018-11-02T14:44:00.487Z,99807.77
2018-11-02T14:46:30.392Z,99806.64
2018-11-02T14:48:59.381Z,99808.43
2018-11-02T14:51:28.484Z,99817.98
2018-11-02T14:53:57.299Z,99816.36
2018-11-02T14:56:26.533Z,99820.91
2018-11-02T14:58:55.930Z,99814.38
2018-11-02T15:01:25.192Z,99812.42
2018-11-02T15:03:54.233Z,99806.08
2018-11-02T15:06:23.852Z,99801.88
2018-11-02T15:08:53.069Z,99797.66
2018-11-02T15:11:21.964Z,99803.02
2018-11-02T15:13:52.266Z,99789.55
2018-11-02T15:16:21.339Z,99789.95
2018-11-02T15:18:50.772Z,99794.36
2018-11-02T15:21:20.262Z,99794.77
2018-11-02T15:23:49.166Z,99796.27
2018-11-02T15:26:18.559Z,99790.58
2018-11-02T15:28:48.162Z,99792.45
2018-11-02T15:31:17.720Z,99799.74
2018-11-02T15:33:47.353Z,99796.33
2018-11-02T15:36:16.128Z,99805.34
2018-11-02T15:38:45.161Z,99803.33
2018-11-02T15:41:14.436Z,99811.58
2018-11-02T15:43:43.596Z,99808.92
2018-11-02T15:46:13.352Z,99815.29
2018-11-02T15:48:42.774Z,99810.13
2018-11-02T15:51:11.431Z,99823.38
2018-11-02T15:53:40.401Z,99831.77
2018-11-02T15:56:09.340Z,99839.56
2018-11-02T15:58:38.888Z,99850.23
2018-11-02T16:01:08.180Z,99859.62
2018-11-02T16:03:37.417Z,99861.45
2018-11-02T16:06:06.654Z,99866.70
2018-11-02T16:08:36.361Z,99866.87
2018-11-02T16:11:06.085Z,99870.84
2018-11-02T16:13:34.983Z,99876.11
2018-11-02T16:16:03.821Z,99880.02
2018-11-02T16:18:32.645Z,99877.56
2018-11-02T16:21:02.045Z,99879.96
2018-11-02T16:23:30.817Z,99882.87
2018-11-02T16:26:00.393Z,99887.53
2018-11-02T16:28:29.705Z,99896.88
2018-11-02T16:30:58.494Z,99892.77
2018-11-02T16:33:27.511Z,99896.49
2018-11-02T16:35:57.352Z,99892.91
2018-11-02T16:38:26.472Z,99907.86
2018-11-02T16:40:56.167Z,99921.02
2018-11-02T16:43:25.402Z,99928.57
2018-11-02T16:45:54.762Z,99921.02
2018-11-02T16:48:23.887Z,99922.12
2018-11-02T16:50:53.322Z,99926.86
2018-11-02T16:53:22.234Z,99936.08
2018-11-02T16:55:51.740Z,99935.94
2018-11-02T16:58:21.502Z,99937.64
2018-11-02T17:00:50.828Z,99948.98
2018-11-02T17:03:20.549Z,99950.66
2018-11-02T17:05:49.830Z,99957.11
2018-11-02T17:08:19.159Z,99966.38
2018-11-02T17:10:48.449Z,99964.48
2018-11-02T17:13:17.656Z,99962.14
2018-11-02T17:15:47.158Z,99966.92
2018-11-02T17:18:16.242Z,99975.84
2018-11-02T17:20:45.815Z,99977.27
2018-11-02T17:23:15.053Z,99984.44
2018-11-02T17:25:44.214Z,99990.48
2018-11-02T17:28:14.253Z,99998.42
2018-11-02T17:30:43.181Z,100011.19
2018-11-02T17:33:11.799Z,100020.89
2018-11-02T17:35:41.035Z,100023.11
2018-11-02T17:38:10.477Z,100036.30
2018-11-02T17:40:39.368Z,100041.59
2018-11-02T17:43:08.582Z,100048.33
2018-11-02T17:45:37.898Z,100054.00
2018-11-02T17:48:06.810Z,100057.97
2018-11-02T17:50:35.972Z,100058.44
2018-11-02T17:53:04.801Z,100052.68
2018-11-02T17:55:34.903Z,100054.34
2018-11-02T17:58:04.146Z,100056.27
2018-11-02T18:00:33.279Z,100053.15
2018-11-02T18:03:02.314Z,100056.73
2018-11-02T18:05:31.652Z,100052.91
2018-11-02T18:08:00.971Z,100057.61
2018-11-02T18:10:29.784Z,100066.63
2018-11-02T18:12:59.214Z,100066.02
2018-11-02T18:15:28.920Z,100059.05
2018-11-02T18:17:58.223Z,100063.87
2018-11-02T18:20:27.660Z,100061.02
2018-11-02T18:22:56.960Z,100056.37
2018-11-02T18:25:26.427Z,100062.45
2018-11-02T18:27:55.032Z,100067.50
2018-11-02T18:30:25.145Z,100060.83
2018-11-02T18:32:54.027Z,100063.78
2018-11-02T18:35:23.342Z,100071.33
2018-11-02T18:37:52.646Z,100069.69
2018-11-02T18:40:22.556Z,100075.16
2018-11-02T18:42:51.336Z,100073.04
2018-11-02T18:45:20.643Z,100081.14
2018-11-02T18:47:50.910Z,100086.48
2018-11-02T18:50:21.530Z,100089.44
2018-11-02T18:52:51.336Z,100097.80
2018-11-02T18:55:20.420Z,100101.75
2018-11-02T18:57:49.412Z,100104.27
2018-11-02T19:00:18.378Z,100112.72
2018-11-02T19:02:47.638Z,100099.69
2018-11-02T19:05:18.036Z,100096.58
2018-11-02T19:07:47.700Z,100108.22
2018-11-02T19:10:17.062Z,100108.69
2018-11-02T19:12:46.005Z,100111.79
2018-11-02T19:15:17.940Z,100114.83
2018-11-02T19:17:47.135Z,100121.30
2018-11-02T19:20:16.128Z,100125.78
2018-11-02T19:22:45.361Z,100131.20
2018-11-02T19:25:15.368Z,100130.38
2018-11-02T19:27:44.995Z,100138.38
2018-11-02T19:30:14.692Z,100140.91
2018-11-02T19:32:43.737Z,100138.59
2018-11-02T19:35:13.726Z,100137.81
2018-11-02T19:37:43.042Z,100153.84
2018-11-02T19:40:12.983Z,100151.60
2018-11-02T19:42:41.855Z,100154.20
2018-11-02T19:45:11.809Z,100160.55
2018-11-02T19:47:45.605Z,100163.25
2018-11-02T19:50:16.220Z,100170.45
2018-11-02T19:52:46.080Z,100176.27
2018-11-02T19:55:15.895Z,100181.14
2018-11-02T19:57:45.351Z,100175.83
2018-11-02T20:00:16.532Z,100172.73
2018-11-02T20:02:45.145Z,100174.22
2018-11-02T20:05:15.484Z,100164.41
2018-11-02T20:07:44.634Z,100174.42
2018-11-02T20:10:14.155Z,100184.84
2018-11-02T20:12:43.600Z,100191.59
2018-11-02T20:15:13.927Z,100195.88
2018-11-02T20:17:43.239Z,100193.70
2018-11-02T20:20:13.137Z,100188.02
2018-11-02T20:22:42.022Z,100189.73
2018-11-02T20:25:12.869Z,100191.45
2018-11-02T20:27:41.817Z,100195.75
2018-11-02T20:30:13.275Z,100196.60
2018-11-02T20:32:42.938Z,100196.27
2018-11-02T20:35:11.908Z,100198.66
2018-11-02T20:37:40.860Z,100196.11
2018-11-02T20:40:11.947Z,100190.97
2018-11-02T20:42:41.139Z,100194.06
2018-11-02T20:45:10.338Z,100190.63
2018-11-02T20:47:44.590Z,100194.13
2018-11-02T20:50:13.872Z,100191.03
2018-11-02T20:52:42.686Z,100199.48
2018-11-02T20:55:13.044Z,100216.65
2018-11-02T20:57:42.431Z,100214.56
2018-11-02T21:00:24.241Z,100216.41
2018-11-02T21:03:03.695Z,100222.88
2018-11-02T21:05:36.354Z,100225.98
2018-11-02T21:08:08.688Z,100231.33
2018-11-02T21:10:46.400Z,100233.39
2018-11-02T21:13:17.706Z,100235.47
2018-11-02T21:15:52.116Z,100233.22
2018-11-02T21:18:21.421Z,100233.69
2018-11-02T21:20:57.220Z,100240.29
2018-11-02T21:23:31.758Z,100238.67
2018-11-02T21:26:03.030Z,100238.57
2018-11-02T21:28:33.197Z,100237.88
2018-11-02T21:31:02.715Z,100230.75
2018-11-02T21:33:31.503Z,100227.61
2018-11-02T21:36:00.642Z,100233.81
2018-11-02T21:38:29.628Z,100225.06
2018-11-02T21:40:58.868Z,100223.48
2018-11-02T21:43:28.003Z,100225.26
2018-11-02T21:45:57.354Z,100235.83
2018-11-02T21:48:26.849Z,100247.02
2018-11-02T21:50:56.200Z,100247.05
2018-11-02T21:53:25.490Z,100247.25
2018-11-02T21:55:55.054Z,100257.02
2018-11-02T21:58:24.209Z,100259.20
2018-11-02T22:00:53.228Z,100259.29
2018-11-02T22:03:22.270Z,100257.57
2018-11-02T22:05:51.642Z,100254.07
2018-11-02T22:08:21.381Z,100248.30
2018-11-02T22:10:50.852Z,100247.77
2018-11-02T22:13:20.365Z,100242.48
2018-11-02T22:15:49.794Z,100245.53
2018-11-02T22:18:18.694Z,100241.63
2018-11-02T22:20:47.492Z,100242.03
2018-11-02T22:23:16.761Z,100241.05
2018-11-02T22:25:46.286Z,100241.80
2018-11-02T22:28:15.469Z,100243.11
2018-11-02T22:30:44.347Z,100246.39
2018-11-02T22:33:13.552Z,100246.78
2018-11-02T22:35:42.804Z,100250.22
2018-11-02T22:38:11.681Z,100251.08
2018-11-02T22:40:40.591Z,100255.17
2018-11-02T22:43:09.550Z,100254.58
2018-11-02T22:45:38.132Z,100253.32
2018-11-02T22:48:12.472Z,100255.44
2018-11-02T22:50:41.689Z,100259.12
2018-11-02T22:53:10.876Z,100252.86
2018-11-02T22:55:40.364Z,100264.22
2018-11-02T22:58:10.262Z,100260.26
2018-11-02T23:00:44.257Z,100255.39
2018-11-02T23:03:13.308Z,100259.66
2018-11-02T23:05:42.463Z,100268.97
2018-11-02T23:08:11.852Z,100272.34
2018-11-02T23:10:41.562Z,100268.78
2018-11-02T23:13:11.300Z,100265.44
2018-11-02T23:15:40.923Z,100265.04
2018-11-02T23:18:09.855Z,100263.78
2018-11-02T23:20:39.165Z,100259.77
2018-11-02T23:23:08.700Z,100260.69
2018-11-02T23:25:37.970Z,100255.80
2018-11-02T23:28:07.104Z,100262.73
2018-11-02T23:30:36.643Z,100262.58
2018-11-02T23:33:05.294Z,100262.31
2018-11-02T23:35:34.202Z,100257.58
2018-11-02T23:38:03.550Z,100263.91
2018-11-02T23:40:32.129Z,100264.98
2018-11-02T23:43:01.282Z,100264.68
2018-11-02T23:45:30.703Z,100260.10
2018-11-02T23:48:04.864Z,100264.52
2018-11-02T23:50:34.712Z,100267.96
2018-11-02T23:53:05.055Z,100258.94
2018-11-02T23:55:34.073Z,100257.77
2018-11-02T23:58:02.946Z,100265.53
